Time;durP1;ratioP1;P1;durP2;ratioP2;P2;SDS_P1;SDS_P2;PMS_P1;PMS_P2;Temp;Humidity;BMP_temperature;BMP_pressure;BME280_temperature;BME280_humidity;BME280_pressure;Samples;Min_cycle;Max_cycle;Signal;HPM_P1;HPM_P2
2024/02/28 00:02:03;;;;;;;94.40;61.90;;;;;;;9.27;84.61;98744.11;226576;1275;22541;-80
2024/02/28 00:07:08;;;;;;;89.90;58.90;;;;;;;9.25;84.50;98742.73;226776;1275;22552;-81
2024/02/28 00:12:10;;;;;;;94.30;58.70;;;;;;;9.24;84.97;98740.05;226753;1272;23015;-81
2024/02/28 00:17:13;;;;;;;89.80;57.50;;;;;;;9.21;84.91;98735.91;226639;1275;22559;-82
2024/02/28 00:22:15;;;;;;;94.80;59.60;;;;;;;9.19;84.84;98735.77;226728;1269;22539;-81
2024/02/28 00:27:17;;;;;;;94.70;59.80;;;;;;;9.16;85.06;98735.77;226632;1272;22546;-82
2024/02/28 00:32:21;;;;;;;91.70;58.90;;;;;;;9.12;85.10;98733.64;226774;1253;25959;-82
2024/02/28 00:37:23;;;;;;;93.60;59.90;;;;;;;9.07;85.23;98728.67;226828;1275;22606;-81
2024/02/28 00:42:27;;;;;;;94.60;59.10;;;;;;;9.01;85.29;98732.63;226742;1269;25285;-81
2024/02/28 00:47:29;;;;;;;95.60;60.10;;;;;;;8.99;85.36;98732.58;226622;1272;22560;-82
2024/02/28 00:52:32;;;;;;;90.60;57.80;;;;;;;8.99;85.61;98725.80;226593;1275;22524;-81
2024/02/28 00:57:35;;;;;;;91.50;59.10;;;;;;;9.00;85.47;98726.65;226700;1262;22550;-81
2024/02/28 01:02:39;;;;;;;96.80;61.40;;;;;;;9.01;85.80;98727.08;226721;1273;22547;-82
2024/02/28 01:07:41;;;;;;;91.60;57.40;;;;;;;9.00;85.73;98724.05;226549;1275;22614;-81
2024/02/28 01:12:43;;;;;;;92.10;58.70;;;;;;;8.97;85.76;98724.70;226556;1275;22559;-82
2024/02/28 01:17:45;;;;;;;91.20;58.70;;;;;;;8.94;85.85;98723.66;226697;1269;22540;-82
2024/02/28 01:22:48;;;;;;;100.80;62.30;;;;;;;8.90;86.12;98722.66;226712;1273;22543;-81
2024/02/28 01:27:50;;;;;;;101.60;66.10;;;;;;;8.82;85.81;98717.29;226569;1272;22706;-82
2024/02/28 01:32:53;;;;;;;105.50;64.50;;;;;;;8.77;86.26;98715.27;226544;1275;22571;-82
2024/02/28 01:37:56;;;;;;;102.90;65.80;;;;;;;8.71;86.40;98713.24;226526;1275;22592;-81
2024/02/28 01:43:08;;;;;;;108.70;67.30;;;;;;;8.66;86.60;98712.55;226685;1269;23056;-82
2024/02/28 01:48:12;;;;;;;105.30;66.60;;;;;;;8.61;86.43;98705.77;226527;1275;22575;-82
2024/02/28 01:53:14;;;;;;;105.50;67.40;;;;;;;8.56;86.68;98705.86;226727;1275;22536;-83
2024/02/28 01:58:20;;;;;;;100.10;63.50;;;;;;;8.52;86.63;98702.59;226686;1275;25290;-82
2024/02/28 02:03:22;;;;;;;99.70;64.50;;;;;;;8.50;86.50;98702.14;226590;1273;23033;-81
2024/02/28 02:08:24;;;;;;;98.20;63.60;;;;;;;8.49;86.71;98696.81;226712;1275;22680;-83
2024/02/28 02:13:26;;;;;;;94.70;62.20;;;;;;;8.49;86.52;98696.09;226789;1272;22557;-82
2024/02/28 02:18:28;;;;;;;102.00;62.70;;;;;;;8.48;87.08;98693.49;226532;1275;25408;-82
2024/02/28 02:23:47;;;;;;;105.50;65.10;;;;;;;8.49;87.09;98694.88;226475;1275;22547;-82
2024/02/28 02:28:49;;;;;;;99.70;61.80;;;;;;;8.51;86.68;98695.92;226470;1275;25336;-81
2024/02/28 02:33:51;;;;;;;97.40;62.30;;;;;;;8.52;87.27;98697.40;226727;1272;22543;-83
2024/02/28 02:38:53;;;;;;;92.50;60.20;;;;;;;8.52;87.18;98696.99;226548;1275;22539;-82
2024/02/28 02:43:55;;;;;;;94.80;60.50;;;;;;;8.52;87.40;98701.20;226670;1275;22537;-82
2024/02/28 02:48:57;;;;;;;99.90;62.80;;;;;;;8.49;87.21;98700.63;226750;1272;22547;-82
2024/02/28 02:53:59;;;;;;;93.50;61.80;;;;;;;8.46;87.16;98701.55;226653;1275;22543;-82
2024/02/28 02:59:01;;;;;;;95.30;60.90;;;;;;;8.42;87.19;98700.77;226533;1275;22560;-82
2024/02/28 03:04:04;;;;;;;103.30;61.90;;;;;;;8.39;86.95;98704.23;226529;1275;24227;-80
2024/02/28 03:09:07;;;;;;;95.20;60.80;;;;;;;8.38;87.53;98706.27;226681;1274;22544;-81
2024/02/28 03:14:13;;;;;;;99.80;62.30;;;;;;;8.38;87.37;98706.15;226720;1269;23664;-81
2024/02/28 03:19:16;;;;;;;103.60;66.70;;;;;;;8.36;87.31;98708.42;226258;1275;22563;-81
2024/02/28 03:24:18;;;;;;;102.90;65.40;;;;;;;8.33;87.14;98711.24;226516;1275;22558;-82
2024/02/28 03:29:20;;;;;;;99.60;64.10;;;;;;;8.32;87.46;98713.48;226688;1272;22568;-82
2024/02/28 03:34:22;;;;;;;101.20;65.80;;;;;;;8.32;87.54;98718.95;226664;1272;22546;-81
2024/02/28 03:39:24;;;;;;;101.60;64.70;;;;;;;8.30;87.60;98723.34;226641;1275;23672;-82
2024/02/28 03:44:27;;;;;;;109.70;68.40;;;;;;;8.28;87.20;98725.14;226505;1275;22547;-84
2024/02/28 03:49:29;;;;;;;114.80;69.50;;;;;;;8.23;87.49;98729.55;226558;1275;22551;-82
2024/02/28 03:54:31;;;;;;;114.30;70.50;;;;;;;8.17;87.35;98732.95;226559;1275;22555;-82
2024/02/28 03:59:33;;;;;;;116.70;70.00;;;;;;;8.11;87.47;98730.62;226681;1275;22521;-81
2024/02/28 04:04:35;;;;;;;110.50;66.70;;;;;;;8.05;87.21;98732.52;226528;1275;23641;-82
2024/02/28 04:09:37;;;;;;;104.90;63.90;;;;;;;8.01;87.30;98740.73;226662;1253;24218;-81
2024/02/28 04:14:40;;;;;;;108.40;64.40;;;;;;;7.97;87.04;98745.72;226474;1275;22543;-80
2024/02/28 04:19:42;;;;;;;115.90;69.90;;;;;;;7.91;87.54;98751.27;226649;1275;22652;-81
2024/02/28 04:24:44;;;;;;;108.40;67.00;;;;;;;7.88;87.17;98752.36;226667;1272;22557;-81
2024/02/28 04:29:46;;;;;;;105.10;63.90;;;;;;;7.85;87.23;98756.20;226714;1270;22529;-82
2024/02/28 04:34:48;;;;;;;102.10;62.70;;;;;;;7.80;87.33;98759.54;226487;1275;22643;-82
2024/02/28 04:39:50;;;;;;;104.30;61.60;;;;;;;7.74;87.46;98764.02;226749;1275;22554;-82
2024/02/28 04:44:52;;;;;;;104.30;62.50;;;;;;;7.69;87.53;98768.98;226623;1269;22645;-82
2024/02/28 04:49:54;;;;;;;95.00;59.30;;;;;;;7.65;87.57;98774.39;226495;1275;22544;-83
2024/02/28 04:54:56;;;;;;;99.70;60.00;;;;;;;7.61;87.56;98776.56;226644;1274;22543;-83
2024/02/28 04:59:59;;;;;;;103.80;61.60;;;;;;;7.57;87.74;98781.28;226675;1273;22539;-83
2024/02/28 05:05:01;;;;;;;89.10;56.20;;;;;;;7.50;87.42;98788.13;226470;1275;25348;-82
2024/02/28 05:10:06;;;;;;;98.50;58.50;;;;;;;7.42;87.66;98793.17;226686;1275;22544;-82
2024/02/28 05:15:09;;;;;;;100.00;59.40;;;;;;;7.36;87.85;98796.87;226477;1275;22545;-81
2024/02/28 05:20:11;;;;;;;104.20;57.90;;;;;;;7.33;87.93;98799.46;226452;1276;22554;-82
2024/02/28 05:25:13;;;;;;;116.00;60.20;;;;;;;7.30;87.82;98802.91;226468;1272;22564;-82
2024/02/28 05:30:16;;;;;;;98.40;57.40;;;;;;;7.29;88.05;98806.66;226497;1273;22550;-82
2024/02/28 05:35:18;;;;;;;104.40;56.30;;;;;;;7.28;88.26;98806.46;226526;1261;25876;-82
2024/02/28 05:40:20;;;;;;;95.10;53.80;;;;;;;7.28;88.25;98813.73;226653;1275;22537;-81
2024/02/28 05:45:22;;;;;;;87.30;51.70;;;;;;;7.27;88.37;98818.01;226647;1275;22563;-82
2024/02/28 05:50:24;;;;;;;99.40;55.10;;;;;;;7.26;88.03;98822.84;226466;1275;22583;-81
2024/02/28 05:55:28;;;;;;;97.80;54.00;;;;;;;7.23;88.17;98818.94;226550;1275;22543;-83
2024/02/28 06:00:30;;;;;;;99.70;54.60;;;;;;;7.22;88.46;98824.48;226521;1275;22578;-83
2024/02/28 06:05:32;;;;;;;98.10;54.10;;;;;;;7.24;88.26;98828.13;226532;1275;24199;-82
2024/02/28 06:10:34;;;;;;;104.40;57.50;;;;;;;7.24;88.30;98826.95;226723;1275;22539;-82
2024/02/28 06:15:36;;;;;;;108.10;58.90;;;;;;;7.23;88.70;98831.74;226719;1275;22553;-82
2024/02/28 06:20:38;;;;;;;108.90;58.40;;;;;;;7.25;88.48;98838.15;226504;1275;22561;-82
2024/02/28 06:25:40;;;;;;;100.10;56.80;;;;;;;7.29;88.74;98849.30;226502;1275;22532;-82
2024/02/28 06:30:47;;;;;;;102.90;54.60;;;;;;;7.36;88.68;98849.02;226406;1275;23419;-81
2024/02/28 06:35:49;;;;;;;101.30;55.20;;;;;;;7.48;88.72;98853.35;226671;1275;22551;-83
2024/02/28 06:40:51;;;;;;;97.50;55.30;;;;;;;7.63;88.84;98857.34;226520;1275;22734;-82
2024/02/28 06:45:53;;;;;;;91.20;51.60;;;;;;;7.77;88.80;98856.48;226552;1275;23339;-81
2024/02/28 06:50:56;;;;;;;103.80;56.60;;;;;;;7.88;88.53;98862.65;226700;1275;22657;-81
2024/02/28 06:56:01;;;;;;;97.10;53.60;;;;;;;7.95;88.12;98862.04;226173;1255;22577;-82
2024/02/28 07:01:03;;;;;;;93.40;54.00;;;;;;;8.02;88.48;98871.29;226593;1269;22516;-83
2024/02/28 07:06:06;;;;;;;96.20;53.70;;;;;;;8.09;88.82;98882.52;226392;1265;25089;-82
2024/02/28 07:11:15;;;;;;;97.50;54.70;;;;;;;8.17;88.85;98885.95;226367;1266;25246;-85
2024/02/28 07:16:18;;;;;;;98.30;55.00;;;;;;;8.22;88.11;98888.48;226354;1273;22970;-81
2024/02/28 07:21:20;;;;;;;101.70;56.40;;;;;;;8.27;88.15;98893.71;226593;1269;22558;-79
2024/02/28 07:26:22;;;;;;;106.80;57.60;;;;;;;8.31;88.18;98896.79;226625;1270;22545;-83
2024/02/28 07:31:28;;;;;;;109.50;58.00;;;;;;;8.34;88.10;98898.92;226410;1264;26039;-82
2024/02/28 07:36:30;;;;;;;104.90;55.60;;;;;;;8.38;88.34;98891.13;226612;1273;22603;-82
2024/02/28 07:41:32;;;;;;;95.10;54.00;;;;;;;8.45;88.07;98891.20;226688;1257;25365;-81
2024/02/28 07:46:35;;;;;;;90.00;50.90;;;;;;;8.54;87.62;98889.89;226477;1263;22555;-79
2024/02/28 07:51:37;;;;;;;99.20;54.80;;;;;;;8.63;88.09;98892.48;226366;1272;22566;-85
2024/02/28 07:56:39;;;;;;;92.00;52.70;;;;;;;8.71;87.74;98888.13;226455;1271;22486;-81
2024/02/28 08:01:42;;;;;;;92.20;52.20;;;;;;;8.78;87.53;98893.97;226515;1269;25496;-80
2024/02/28 08:06:44;;;;;;;91.60;53.00;;;;;;;8.86;87.45;98900.66;226511;1262;22732;-82
2024/02/28 08:11:46;;;;;;;100.10;54.10;;;;;;;8.90;87.34;98904.55;226516;1276;25420;-82
2024/02/28 08:16:49;;;;;;;89.40;50.50;;;;;;;8.89;86.94;98909.11;226417;1275;22533;-81
2024/02/28 08:21:51;;;;;;;87.70;50.40;;;;;;;8.88;86.99;98910.11;226146;1271;22562;-82
2024/02/28 08:26:54;;;;;;;91.80;50.70;;;;;;;8.83;87.00;98914.04;226162;1268;23351;-80
2024/02/28 08:31:56;;;;;;;89.40;49.40;;;;;;;8.89;87.32;98914.90;226323;1275;22540;-79
2024/02/28 08:36:58;;;;;;;91.10;51.30;;;;;;;8.95;86.92;98916.40;226266;1269;22593;-80
2024/02/28 08:42:00;;;;;;;93.30;52.90;;;;;;;9.04;87.00;98918.42;225992;1276;22555;-80
2024/02/28 08:47:02;;;;;;;102.30;54.10;;;;;;;9.16;86.90;98912.32;226132;1275;26156;-79
2024/02/28 08:52:05;;;;;;;101.20;52.40;;;;;;;9.30;86.92;98915.05;226056;1273;174151;-78
2024/02/28 08:57:07;;;;;;;97.60;55.90;;;;;;;9.43;86.73;98923.21;226265;1270;24247;-79
2024/02/28 09:02:11;;;;;;;104.90;56.20;;;;;;;9.56;86.80;98921.85;226244;1273;24238;-79
2024/02/28 09:07:13;;;;;;;102.30;57.00;;;;;;;9.72;86.64;98916.88;226188;1275;24404;-79
2024/02/28 09:12:15;;;;;;;106.00;56.70;;;;;;;9.85;86.39;98923.34;226243;1276;22548;-78
2024/02/28 09:17:18;;;;;;;107.30;58.20;;;;;;;9.91;86.12;98933.71;226353;1261;22594;-80
2024/02/28 09:22:21;;;;;;;109.20;57.40;;;;;;;9.93;85.90;98940.23;226328;1264;24482;-77
2024/02/28 09:27:24;;;;;;;118.60;60.70;;;;;;;9.87;85.70;98940.70;226282;1273;25415;-76
2024/02/28 09:32:27;;;;;;;121.40;60.80;;;;;;;9.84;85.83;98949.17;226297;1273;22548;-80
2024/02/28 09:37:29;;;;;;;118.80;60.80;;;;;;;9.81;85.76;98951.32;226351;1269;22551;-79
2024/02/28 09:42:31;;;;;;;120.90;59.10;;;;;;;9.75;85.83;98959.73;226415;1272;22521;-78
2024/02/28 09:47:34;;;;;;;114.10;59.20;;;;;;;9.71;85.62;98963.74;226358;1269;22562;-80
2024/02/28 09:52:36;;;;;;;123.90;61.80;;;;;;;9.70;85.68;98964.24;226250;1270;22538;-81
2024/02/28 09:57:40;;;;;;;122.80;60.50;;;;;;;9.76;85.86;98970.41;225928;1269;25031;-80
2024/02/28 10:02:44;;;;;;;111.50;56.70;;;;;;;9.84;85.87;98973.94;226190;1275;23316;-79
2024/02/28 10:07:47;;;;;;;115.10;58.50;;;;;;;9.94;86.17;98984.48;226348;1272;22650;-81
2024/02/28 10:12:49;;;;;;;105.60;54.20;;;;;;;9.96;85.80;98990.20;226498;1267;24694;-80
2024/02/28 10:17:51;;;;;;;101.40;52.90;;;;;;;9.96;85.55;98985.21;226208;1263;22565;-82
2024/02/28 10:22:54;;;;;;;119.50;57.70;;;;;;;10.00;85.37;98985.68;226394;1257;22546;-80
2024/02/28 10:28:00;;;;;;;112.90;56.10;;;;;;;10.09;85.52;98995.45;226174;1273;22605;-81
2024/02/28 10:33:03;;;;;;;109.80;56.00;;;;;;;10.08;85.17;98993.66;226503;1257;22570;-81
2024/02/28 10:38:06;;;;;;;99.90;51.20;;;;;;;10.04;85.31;98998.95;226314;1270;22557;-80
2024/02/28 10:43:09;;;;;;;107.10;54.40;;;;;;;10.04;85.68;98993.11;226393;1254;22691;-77
2024/02/28 10:48:15;;;;;;;117.00;56.90;;;;;;;10.06;85.36;98999.00;226404;1254;22552;-81
2024/02/28 10:53:21;;;;;;;128.00;58.40;;;;;;;10.03;84.93;99000.84;226361;1260;22960;-78
2024/02/28 10:58:25;;;;;;;113.90;54.60;;;;;;;9.94;84.86;99005.08;226318;1275;22582;-79
2024/02/28 11:03:27;;;;;;;124.70;58.90;;;;;;;9.82;84.96;99011.14;226229;1273;22591;-78
2024/02/28 11:08:31;;;;;;;138.90;59.10;;;;;;;9.72;85.02;99010.77;226286;1253;22547;-79
2024/02/28 11:13:33;;;;;;;123.90;59.00;;;;;;;9.73;85.37;99004.65;226250;1261;25287;-80
2024/02/28 11:18:36;;;;;;;129.30;59.60;;;;;;;9.77;85.38;99008.91;226126;1260;23018;-80
2024/02/28 11:23:38;;;;;;;113.00;55.20;;;;;;;9.83;85.60;99006.44;225978;1269;22546;-80
2024/02/28 11:28:40;;;;;;;116.80;58.30;;;;;;;9.86;85.40;99006.13;226001;1269;22592;-77
2024/02/28 11:33:43;;;;;;;113.00;56.10;;;;;;;9.85;85.24;99004.48;226116;1270;22710;-76
2024/02/28 11:38:46;;;;;;;104.60;54.90;;;;;;;9.83;85.28;99009.41;226357;1275;25134;-77
2024/02/28 11:43:47;;;;;;;112.50;54.20;;;;;;;9.83;85.22;99007.05;226103;1260;22909;-78
2024/02/28 11:48:55;;;;;;;109.30;56.30;;;;;;;9.86;85.31;99010.64;226051;1274;22578;-78
2024/02/28 11:54:01;;;;;;;108.00;56.50;;;;;;;9.90;85.16;99010.43;226007;1270;22547;-76
2024/02/28 11:59:05;;;;;;;100.70;55.00;;;;;;;9.87;84.92;99012.98;226363;1269;22617;-76
2024/02/28 12:04:07;;;;;;;106.90;56.30;;;;;;;9.89;85.35;99012.65;226361;1260;22615;-77
2024/02/28 12:09:14;;;;;;;103.80;55.60;;;;;;;9.88;84.87;99015.05;226090;1263;22474;-77
2024/02/28 12:14:27;;;;;;;101.50;54.00;;;;;;;9.82;85.02;99027.29;226456;1270;23294;-78
2024/02/28 12:19:29;;;;;;;112.20;55.40;;;;;;;9.76;85.12;99031.19;226208;1275;22547;-79
2024/02/28 12:24:33;;;;;;;103.50;55.70;;;;;;;9.75;85.13;99033.48;226492;1264;22633;-78
2024/02/28 12:29:35;;;;;;;107.20;56.10;;;;;;;9.73;85.16;99038.26;226327;1259;22550;-79
2024/02/28 12:40:22;;;;;;;101.30;55.80;;;;;;;9.72;85.40;99039.23;220094;1304;545745;-78
2024/02/28 12:45:24;;;;;;;97.00;51.40;;;;;;;9.71;85.52;99031.41;224886;1266;22585;-78
2024/02/28 12:50:27;;;;;;;91.00;50.80;;;;;;;9.77;85.57;99029.40;224789;1281;268633;-79
2024/02/28 12:55:29;;;;;;;87.00;50.00;;;;;;;9.81;85.22;99038.71;224968;1263;22557;-78
2024/02/28 13:00:32;;;;;;;89.30;52.00;;;;;;;9.80;85.10;99046.86;224874;1279;22939;-77
2024/02/28 13:05:35;;;;;;;83.00;47.90;;;;;;;9.76;85.29;99053.22;224938;1275;25416;-78
2024/02/28 13:10:40;;;;;;;82.40;48.20;;;;;;;9.71;85.22;99049.35;226470;1272;22549;-78
2024/02/28 13:15:45;;;;;;;80.10;47.50;;;;;;;9.70;85.07;99045.84;226242;1269;22679;-76
2024/02/28 13:20:47;;;;;;;75.90;43.60;;;;;;;9.68;85.34;99051.28;226244;1259;24280;-76
2024/02/28 13:25:49;;;;;;;73.60;44.70;;;;;;;9.65;85.00;99049.46;226213;1265;22534;-76
2024/02/28 13:30:51;;;;;;;71.60;42.80;;;;;;;9.62;85.36;99055.39;226340;1259;22557;-75
2024/02/28 13:35:54;;;;;;;69.40;42.70;;;;;;;9.58;85.32;99058.62;226071;1271;22569;-75
2024/02/28 13:40:56;;;;;;;69.30;42.40;;;;;;;9.51;85.24;99052.39;226408;1253;22622;-75
2024/02/28 13:46:00;;;;;;;66.10;40.70;;;;;;;9.50;85.50;99049.85;226289;1257;22625;-75
2024/02/28 13:51:03;;;;;;;64.30;40.20;;;;;;;9.48;85.31;99051.17;226305;1275;22566;-79
2024/02/28 13:56:06;;;;;;;63.50;38.80;;;;;;;9.43;85.25;99054.15;226469;1269;22642;-76
2024/02/28 14:01:09;;;;;;;63.90;40.80;;;;;;;9.41;85.60;99060.95;225910;1276;22574;-76
2024/02/28 14:06:12;;;;;;;60.50;39.00;;;;;;;9.37;85.45;99060.14;226479;1265;22532;-76
2024/02/28 14:11:16;;;;;;;57.80;36.70;;;;;;;9.36;85.72;99069.41;225935;1268;23063;-76
2024/02/28 14:16:19;;;;;;;56.70;36.90;;;;;;;9.31;85.41;99081.05;226164;1264;22574;-78
2024/02/28 14:21:24;;;;;;;49.10;33.10;;;;;;;9.24;85.40;99083.11;226197;1275;22577;-77
2024/02/28 14:26:26;;;;;;;47.90;33.30;;;;;;;9.20;85.82;99076.85;226471;1265;22554;-79
2024/02/28 14:31:29;;;;;;;49.80;32.30;;;;;;;9.22;85.61;99080.98;226192;1262;22544;-78
2024/02/28 14:36:31;;;;;;;52.70;34.90;;;;;;;9.23;85.82;99090.86;226158;1269;25427;-78
2024/02/28 14:41:34;;;;;;;58.40;38.30;;;;;;;9.21;85.59;99092.89;226322;1269;22543;-75
2024/02/28 14:46:36;;;;;;;60.20;40.30;;;;;;;9.17;85.94;99095.69;226121;1275;22673;-75
2024/02/28 14:51:40;;;;;;;54.50;35.10;;;;;;;9.12;85.93;99097.05;226308;1275;22559;-76
2024/02/28 14:56:42;;;;;;;60.10;38.60;;;;;;;9.03;85.50;99106.80;226310;1265;22552;-76
2024/02/28 15:01:44;;;;;;;55.90;36.90;;;;;;;8.95;85.58;99113.41;226485;1265;25046;-76
2024/02/28 15:06:48;;;;;;;57.10;36.30;;;;;;;8.85;86.00;99115.33;226317;1275;24328;-76
2024/02/28 15:11:50;;;;;;;57.60;37.20;;;;;;;8.79;86.24;99115.42;226211;1276;22524;-76
2024/02/28 15:16:52;;;;;;;56.50;36.80;;;;;;;8.74;85.95;99125.84;226370;1276;22563;-76
2024/02/28 15:21:54;;;;;;;51.40;33.90;;;;;;;8.68;86.18;99127.77;226390;1276;22562;-76
2024/02/28 15:26:56;;;;;;;51.30;33.80;;;;;;;8.63;86.56;99130.46;226480;1274;26115;-76
2024/02/28 15:31:58;;;;;;;51.50;32.90;;;;;;;8.59;86.25;99135.76;226606;1276;22547;-76
2024/02/28 15:37:00;;;;;;;53.40;33.10;;;;;;;8.57;86.68;99137.04;226631;1275;22554;-77
2024/02/28 15:42:03;;;;;;;45.50;29.80;;;;;;;8.55;86.41;99141.02;226405;1276;22543;-76
2024/02/28 15:47:05;;;;;;;45.20;28.90;;;;;;;8.51;86.75;99142.43;226406;1276;25370;-76
2024/02/28 15:52:09;;;;;;;50.40;31.80;;;;;;;8.45;86.60;99141.52;226428;1276;22557;-75
2024/02/28 15:57:11;;;;;;;53.70;31.90;;;;;;;8.38;86.85;99138.27;226463;1275;22542;-76
2024/02/28 16:02:13;;;;;;;53.10;31.30;;;;;;;8.30;86.82;99143.77;226411;1276;22562;-76
2024/02/28 16:07:15;;;;;;;47.90;30.60;;;;;;;8.24;87.20;99149.05;226410;1276;23163;-76
2024/02/28 16:12:18;;;;;;;50.50;30.60;;;;;;;8.18;86.88;99156.74;226438;1275;22570;-76
2024/02/28 16:17:21;;;;;;;53.30;30.00;;;;;;;8.13;87.56;99164.42;226476;1276;22554;-75
2024/02/28 16:22:23;;;;;;;52.20;30.30;;;;;;;8.09;87.51;99166.41;226456;1276;22542;-76
2024/02/28 16:27:25;;;;;;;44.30;26.10;;;;;;;8.04;87.72;99170.94;226471;1276;22557;-76
2024/02/28 16:32:27;;;;;;;39.00;23.30;;;;;;;8.01;87.82;99170.89;226606;1275;22622;-76
2024/02/28 16:37:28;;;;;;;42.30;25.70;;;;;;;8.00;87.90;99174.96;226393;1276;22576;-77
2024/02/28 16:42:32;;;;;;;42.40;25.10;;;;;;;7.99;87.43;99178.67;226384;1276;22542;-76
2024/02/28 16:47:34;;;;;;;40.20;25.80;;;;;;;8.00;88.00;99184.80;226588;1273;25131;-76
2024/02/28 16:52:36;;;;;;;39.60;24.80;;;;;;;8.00;87.90;99192.82;226398;1276;22615;-76
2024/02/28 16:57:38;;;;;;;38.10;24.20;;;;;;;7.99;88.07;99200.31;226325;1276;22551;-76
2024/02/28 17:02:43;;;;;;;41.30;23.70;;;;;;;7.97;87.81;99205.05;226504;1275;25940;-76
2024/02/28 17:07:45;;;;;;;39.60;24.30;;;;;;;7.95;87.86;99204.21;226384;1276;22543;-77
2024/02/28 17:12:47;;;;;;;38.10;22.70;;;;;;;7.95;88.11;99217.20;226401;1276;25241;-77
2024/02/28 17:17:49;;;;;;;35.60;22.80;;;;;;;7.95;88.09;99216.02;226565;1269;22562;-76
2024/02/28 17:22:52;;;;;;;31.70;19.50;;;;;;;7.97;88.25;99222.27;226396;1276;25275;-76
2024/02/28 17:27:54;;;;;;;35.40;21.60;;;;;;;7.98;88.29;99232.31;226471;1276;22587;-76
2024/02/28 17:32:56;;;;;;;31.30;20.70;;;;;;;7.98;88.35;99231.81;226651;1273;22543;-77
2024/02/28 17:37:58;;;;;;;31.60;20.30;;;;;;;7.98;88.09;99229.85;226470;1272;22550;-77
2024/02/28 17:43:00;;;;;;;30.70;19.10;;;;;;;7.99;88.18;99234.30;226606;1275;22553;-76
2024/02/28 17:48:06;;;;;;;28.60;18.60;;;;;;;8.02;88.28;99231.55;226554;1276;23446;-75
2024/02/28 17:53:08;;;;;;;31.10;18.80;;;;;;;8.04;88.34;99233.13;226452;1275;22549;-77
2024/02/28 17:58:10;;;;;;;26.40;17.20;;;;;;;8.04;88.05;99232.34;226596;1276;22606;-76
2024/02/28 18:03:13;;;;;;;31.40;21.80;;;;;;;8.04;88.28;99231.71;226440;1275;22629;-77
2024/02/28 18:08:15;;;;;;;31.40;21.50;;;;;;;7.96;88.15;99236.88;226445;1275;24274;-77
2024/02/28 18:13:21;;;;;;;30.70;20.20;;;;;;;7.86;88.08;99232.73;226522;1276;22555;-77
2024/02/28 18:18:23;;;;;;;31.30;20.20;;;;;;;7.76;87.92;99232.82;226581;1276;24787;-77
2024/02/28 18:23:25;;;;;;;33.40;20.60;;;;;;;7.69;88.15;99234.29;226517;1275;23060;-77
2024/02/28 18:28:37;;;;;;;30.70;20.60;;;;;;;7.62;88.24;99241.17;226646;1276;22550;-76
2024/02/28 18:33:43;;;;;;;30.40;20.10;;;;;;;7.54;88.11;99238.69;226697;1276;22654;-77
2024/02/28 18:38:45;;;;;;;29.90;19.90;;;;;;;7.49;88.43;99246.21;226474;1276;22581;-77
2024/02/28 18:43:47;;;;;;;24.70;16.70;;;;;;;7.41;88.64;99243.71;226556;1275;22546;-77
2024/02/28 18:48:50;;;;;;;26.90;17.80;;;;;;;7.32;88.80;99258.73;226405;1276;22578;-76
2024/02/28 18:53:52;;;;;;;31.90;18.00;;;;;;;7.28;89.01;99253.77;226586;1275;22550;-76
2024/02/28 18:58:55;;;;;;;26.70;17.50;;;;;;;7.26;89.26;99256.09;226563;1276;22539;-76
2024/02/28 19:03:57;;;;;;;28.50;17.70;;;;;;;7.22;89.67;99266.27;226468;1276;22539;-76
2024/02/28 19:09:00;;;;;;;26.30;19.10;;;;;;;7.20;89.50;99265.08;226563;1276;22551;-75
2024/02/28 19:14:02;;;;;;;24.00;18.00;;;;;;;7.20;89.86;99267.76;226562;1274;22587;-75
2024/02/28 19:19:04;;;;;;;24.00;17.60;;;;;;;7.18;89.77;99273.34;226647;1276;25256;-77
2024/02/28 19:24:06;;;;;;;24.30;17.30;;;;;;;7.16;89.78;99274.14;226492;1276;22565;-75
2024/02/28 19:29:11;;;;;;;23.60;17.40;;;;;;;7.11;89.74;99275.30;226641;1276;25306;-75
2024/02/28 19:34:13;;;;;;;26.40;19.00;;;;;;;7.08;89.78;99277.02;226504;1274;22561;-76
2024/02/28 19:39:15;;;;;;;26.60;20.00;;;;;;;7.05;90.14;99283.59;226539;1276;22551;-76
2024/02/28 19:44:17;;;;;;;29.40;19.20;;;;;;;7.01;90.39;99281.88;226592;1276;22477;-77
2024/02/28 19:49:19;;;;;;;24.40;18.40;;;;;;;6.99;90.19;99279.66;226529;1276;22555;-76
2024/02/28 19:54:21;;;;;;;25.10;18.90;;;;;;;6.98;90.38;99280.77;226513;1276;22601;-74
2024/02/28 19:59:23;;;;;;;26.80;19.00;;;;;;;6.96;89.90;99277.33;226399;1276;22571;-76
2024/02/28 20:04:25;;;;;;;26.60;19.40;;;;;;;6.93;89.84;99280.23;226542;1273;22548;-76
2024/02/28 20:09:34;;;;;;;23.20;17.10;;;;;;;6.91;90.02;99280.77;226530;1270;22576;-76
2024/02/28 20:14:36;;;;;;;25.60;18.60;;;;;;;6.90;90.54;99283.88;226544;1274;22565;-75
2024/02/28 20:19:38;;;;;;;25.90;19.10;;;;;;;6.88;90.65;99287.10;226513;1276;22562;-76
2024/02/28 20:24:42;;;;;;;26.90;18.90;;;;;;;6.85;90.57;99289.27;226526;1274;22555;-76
2024/02/28 20:29:44;;;;;;;27.00;18.80;;;;;;;6.84;90.41;99291.10;226469;1276;22618;-76
2024/02/28 20:34:48;;;;;;;22.60;17.90;;;;;;;6.84;90.93;99295.30;226442;1276;22559;-77
2024/02/28 20:39:50;;;;;;;23.50;17.70;;;;;;;6.84;90.80;99302.15;226503;1276;24383;-76
2024/02/28 20:44:52;;;;;;;23.80;18.20;;;;;;;6.83;90.91;99304.85;226289;1273;22557;-77
2024/02/28 20:49:54;;;;;;;25.40;18.30;;;;;;;6.85;91.10;99312.44;226504;1275;22569;-76
2024/02/28 20:54:56;;;;;;;22.80;17.30;;;;;;;6.84;91.00;99313.33;226482;1276;22547;-76
2024/02/28 20:59:58;;;;;;;24.90;18.40;;;;;;;6.83;90.86;99321.20;226548;1274;22550;-77
2024/02/28 21:05:00;;;;;;;22.30;17.00;;;;;;;6.83;91.06;99324.57;226560;1276;24360;-77
2024/02/28 21:10:02;;;;;;;26.80;17.60;;;;;;;6.82;91.03;99331.33;226520;1276;22560;-75
2024/02/28 21:15:07;;;;;;;21.90;17.30;;;;;;;6.79;90.85;99332.11;226480;1276;22557;-76
2024/02/28 21:20:09;;;;;;;22.40;17.70;;;;;;;6.77;90.98;99339.00;226505;1274;22564;-76
2024/02/28 21:25:11;;;;;;;21.90;17.30;;;;;;;6.73;91.08;99343.52;226319;1276;22565;-76
2024/02/28 21:30:14;;;;;;;22.30;16.70;;;;;;;6.73;91.19;99350.31;226476;1272;22533;-76
2024/02/28 21:35:16;;;;;;;19.30;15.20;;;;;;;6.72;90.83;99352.18;226562;1276;23126;-75
2024/02/28 21:40:23;;;;;;;19.70;15.10;;;;;;;6.69;90.96;99349.98;226539;1276;22577;-75
2024/02/28 21:45:25;;;;;;;22.00;16.10;;;;;;;6.67;91.08;99357.00;226481;1276;24411;-77
2024/02/28 21:50:27;;;;;;;22.10;15.30;;;;;;;6.69;91.26;99355.98;226430;1276;22545;-77
2024/02/28 21:55:29;;;;;;;20.70;15.60;;;;;;;6.68;91.51;99358.47;226441;1274;22569;-76
2024/02/28 22:00:31;;;;;;;21.00;15.60;;;;;;;6.68;91.22;99365.41;226549;1270;22617;-76
2024/02/28 22:05:34;;;;;;;17.30;13.90;;;;;;;6.64;90.90;99354.16;226539;1271;22550;-76
2024/02/28 22:10:36;;;;;;;19.90;14.70;;;;;;;6.62;91.17;99358.06;226245;1276;22541;-76
2024/02/28 22:15:38;;;;;;;18.50;14.10;;;;;;;6.60;91.07;99354.92;226632;1274;22543;-76
2024/02/28 22:20:40;;;;;;;19.50;13.60;;;;;;;6.60;91.35;99354.59;226525;1271;22538;-77
2024/02/28 22:25:42;;;;;;;17.30;13.50;;;;;;;6.59;91.30;99349.23;226286;1274;22561;-77
2024/02/28 22:30:44;;;;;;;17.60;13.80;;;;;;;6.60;91.66;99350.77;226473;1276;22998;-75
2024/02/28 22:35:46;;;;;;;20.10;13.60;;;;;;;6.57;91.31;99343.85;226374;1273;22615;-76
2024/02/28 22:40:49;;;;;;;18.10;14.10;;;;;;;6.56;91.74;99344.50;226422;1272;25307;-76
2024/02/28 22:45:51;;;;;;;19.70;14.90;;;;;;;6.55;91.79;99348.89;226523;1275;22546;-76
2024/02/28 22:50:53;;;;;;;23.40;16.80;;;;;;;6.55;91.77;99345.48;226300;1276;24496;-76
2024/02/28 22:55:55;;;;;;;22.80;16.10;;;;;;;6.53;91.53;99341.59;226602;1276;22551;-76
2024/02/28 23:00:57;;;;;;;21.50;15.10;;;;;;;6.50;91.37;99341.73;226421;1275;22544;-76
2024/02/28 23:06:00;;;;;;;22.50;16.20;;;;;;;6.49;91.76;99337.13;226478;1274;22544;-76
2024/02/28 23:11:02;;;;;;;22.90;16.80;;;;;;;6.49;91.65;99332.20;226529;1273;23169;-77